sensor_id;sensor_type;location;lat;lon;timestamp;temperature;humidity
46490;DHT22;32204;49.160;8.580;2022-08-19T00:00:05;23.30;99.90
46490;DHT22;32204;49.160;8.580;2022-08-19T00:02:32;23.40;99.90
46490;DHT22;32204;49.160;8.580;2022-08-19T00:04:58;23.30;99.90
46490;DHT22;32204;49.160;8.580;2022-08-19T00:07:23;23.20;99.90
46490;DHT22;32204;49.160;8.580;2022-08-19T00:09:49;23.10;99.90
46490;DHT22;32204;49.160;8.580;2022-08-19T00:12:14;23.00;99.90
46490;DHT22;32204;49.160;8.580;2022-08-19T00:14:40;22.80;99.90
46490;DHT22;32204;49.160;8.580;2022-08-19T00:17:07;22.70;99.90
46490;DHT22;32204;49.160;8.580;2022-08-19T00:19:34;22.70;99.90
46490;DHT22;32204;49.160;8.580;2022-08-19T00:22:00;22.60;99.90
46490;DHT22;32204;49.160;8.580;2022-08-19T00:24:28;22.70;99.90
46490;DHT22;32204;49.160;8.580;2022-08-19T00:26:55;22.70;99.90
46490;DHT22;32204;49.160;8.580;2022-08-19T00:29:22;22.70;99.90
46490;DHT22;32204;49.160;8.580;2022-08-19T00:31:50;22.70;99.90
46490;DHT22;32204;49.160;8.580;2022-08-19T00:34:20;22.70;99.90
46490;DHT22;32204;49.160;8.580;2022-08-19T00:36:46;22.70;99.90
46490;DHT22;32204;49.160;8.580;2022-08-19T00:39:12;22.70;99.90
46490;DHT22;32204;49.160;8.580;2022-08-19T00:41:39;22.70;99.90
46490;DHT22;32204;49.160;8.580;2022-08-19T00:44:09;22.80;99.90
46490;DHT22;32204;49.160;8.580;2022-08-19T00:46:37;22.80;99.90
46490;DHT22;32204;49.160;8.580;2022-08-19T00:49:22;22.80;99.90
46490;DHT22;32204;49.160;8.580;2022-08-19T00:51:52;22.80;99.90
46490;DHT22;32204;49.160;8.580;2022-08-19T00:54:19;22.80;99.90
46490;DHT22;32204;49.160;8.580;2022-08-19T00:56:47;22.80;99.90
46490;DHT22;32204;49.160;8.580;2022-08-19T00:59:15;22.70;99.90
46490;DHT22;32204;49.160;8.580;2022-08-19T01:01:43;22.70;99.90
46490;DHT22;32204;49.160;8.580;2022-08-19T01:04:09;22.70;99.90
46490;DHT22;32204;49.160;8.580;2022-08-19T01:06:36;22.60;99.90
46490;DHT22;32204;49.160;8.580;2022-08-19T01:09:04;22.50;99.90
46490;DHT22;32204;49.160;8.580;2022-08-19T01:11:33;22.40;99.90
46490;DHT22;32204;49.160;8.580;2022-08-19T01:13:59;22.40;99.90
46490;DHT22;32204;49.160;8.580;2022-08-19T01:16:26;22.50;99.90
46490;DHT22;32204;49.160;8.580;2022-08-19T01:18:53;22.50;99.90
46490;DHT22;32204;49.160;8.580;2022-08-19T01:21:31;22.40;99.90
46490;DHT22;32204;49.160;8.580;2022-08-19T01:23:58;22.50;99.90
46490;DHT22;32204;49.160;8.580;2022-08-19T01:26:24;22.40;99.90
46490;DHT22;32204;49.160;8.580;2022-08-19T01:28:53;22.50;99.90
46490;DHT22;32204;49.160;8.580;2022-08-19T01:31:22;22.50;99.90
46490;DHT22;32204;49.160;8.580;2022-08-19T01:33:49;22.40;99.90
46490;DHT22;32204;49.160;8.580;2022-08-19T01:36:26;22.40;99.90
46490;DHT22;32204;49.160;8.580;2022-08-19T01:38:52;22.50;99.90
46490;DHT22;32204;49.160;8.580;2022-08-19T01:41:18;22.50;99.90
46490;DHT22;32204;49.160;8.580;2022-08-19T01:43:44;22.40;99.90
46490;DHT22;32204;49.160;8.580;2022-08-19T01:46:10;22.40;99.90
46490;DHT22;32204;49.160;8.580;2022-08-19T01:48:38;22.40;99.90
46490;DHT22;32204;49.160;8.580;2022-08-19T01:51:05;22.50;99.90
46490;DHT22;32204;49.160;8.580;2022-08-19T01:53:31;22.60;99.90
46490;DHT22;32204;49.160;8.580;2022-08-19T01:55:57;22.60;99.90
46490;DHT22;32204;49.160;8.580;2022-08-19T01:58:28;22.60;99.90
46490;DHT22;32204;49.160;8.580;2022-08-19T02:00:56;22.50;99.90
46490;DHT22;32204;49.160;8.580;2022-08-19T02:03:22;22.40;99.90
46490;DHT22;32204;49.160;8.580;2022-08-19T02:05:57;22.40;99.90
46490;DHT22;32204;49.160;8.580;2022-08-19T02:08:27;22.30;99.90
46490;DHT22;32204;49.160;8.580;2022-08-19T02:10:53;22.20;99.90
46490;DHT22;32204;49.160;8.580;2022-08-19T02:13:19;22.20;99.90
46490;DHT22;32204;49.160;8.580;2022-08-19T02:15:45;22.20;99.90
46490;DHT22;32204;49.160;8.580;2022-08-19T02:18:11;22.30;99.90
46490;DHT22;32204;49.160;8.580;2022-08-19T02:20:39;22.20;99.90
46490;DHT22;32204;49.160;8.580;2022-08-19T02:23:06;22.10;99.90
46490;DHT22;32204;49.160;8.580;2022-08-19T02:25:32;22.10;99.90
46490;DHT22;32204;49.160;8.580;2022-08-19T02:27:57;22.10;99.90
46490;DHT22;32204;49.160;8.580;2022-08-19T02:30:23;22.10;99.90
46490;DHT22;32204;49.160;8.580;2022-08-19T02:32:50;22.10;99.90
46490;DHT22;32204;49.160;8.580;2022-08-19T02:35:17;22.10;99.90
46490;DHT22;32204;49.160;8.580;2022-08-19T02:37:43;22.10;99.90
46490;DHT22;32204;49.160;8.580;2022-08-19T02:40:28;21.90;99.90
46490;DHT22;32204;49.160;8.580;2022-08-19T02:42:54;21.80;99.90
46490;DHT22;32204;49.160;8.580;2022-08-19T02:45:19;21.80;99.90
46490;DHT22;32204;49.160;8.580;2022-08-19T02:47:45;21.90;99.90
46490;DHT22;32204;49.160;8.580;2022-08-19T02:50:12;21.90;99.90
46490;DHT22;32204;49.160;8.580;2022-08-19T02:52:38;21.90;99.90
46490;DHT22;32204;49.160;8.580;2022-08-19T02:55:05;21.80;99.90
46490;DHT22;32204;49.160;8.580;2022-08-19T02:57:31;21.80;99.90
46490;DHT22;32204;49.160;8.580;2022-08-19T02:59:57;21.70;99.90
46490;DHT22;32204;49.160;8.580;2022-08-19T03:02:23;21.70;99.90
46490;DHT22;32204;49.160;8.580;2022-08-19T03:04:49;21.70;99.90
46490;DHT22;32204;49.160;8.580;2022-08-19T03:07:16;21.60;99.90
46490;DHT22;32204;49.160;8.580;2022-08-19T03:09:43;21.70;99.90
46490;DHT22;32204;49.160;8.580;2022-08-19T03:12:09;21.70;99.90
46490;DHT22;32204;49.160;8.580;2022-08-19T03:14:36;21.70;99.90
46490;DHT22;32204;49.160;8.580;2022-08-19T03:17:03;21.80;99.90
46490;DHT22;32204;49.160;8.580;2022-08-19T03:19:30;21.90;99.90
46490;DHT22;32204;49.160;8.580;2022-08-19T03:21:56;21.90;99.90
46490;DHT22;32204;49.160;8.580;2022-08-19T03:24:23;21.90;99.90
46490;DHT22;32204;49.160;8.580;2022-08-19T03:26:52;22.00;99.90
46490;DHT22;32204;49.160;8.580;2022-08-19T03:29:19;22.00;99.90
46490;DHT22;32204;49.160;8.580;2022-08-19T03:31:45;22.00;99.90
46490;DHT22;32204;49.160;8.580;2022-08-19T03:34:18;22.00;99.90
46490;DHT22;32204;49.160;8.580;2022-08-19T03:36:45;21.90;99.90
46490;DHT22;32204;49.160;8.580;2022-08-19T03:39:11;21.80;99.90
46490;DHT22;32204;49.160;8.580;2022-08-19T03:41:39;21.80;99.90
46490;DHT22;32204;49.160;8.580;2022-08-19T03:44:05;21.80;99.90
46490;DHT22;32204;49.160;8.580;2022-08-19T03:46:34;21.80;99.90
46490;DHT22;32204;49.160;8.580;2022-08-19T03:49:02;21.80;99.90
46490;DHT22;32204;49.160;8.580;2022-08-19T03:51:37;21.80;99.90
46490;DHT22;32204;49.160;8.580;2022-08-19T03:54:05;21.60;99.90
46490;DHT22;32204;49.160;8.580;2022-08-19T03:56:33;21.60;99.90
46490;DHT22;32204;49.160;8.580;2022-08-19T03:59:00;21.60;99.90
46490;DHT22;32204;49.160;8.580;2022-08-19T04:01:27;21.60;99.90
46490;DHT22;32204;49.160;8.580;2022-08-19T04:03:53;21.50;99.90
46490;DHT22;32204;49.160;8.580;2022-08-19T04:06:30;21.50;99.90
46490;DHT22;32204;49.160;8.580;2022-08-19T04:08:58;21.50;99.90
46490;DHT22;32204;49.160;8.580;2022-08-19T04:11:26;21.50;99.90
46490;DHT22;32204;49.160;8.580;2022-08-19T04:13:53;21.50;99.90
46490;DHT22;32204;49.160;8.580;2022-08-19T04:16:20;21.50;99.90
46490;DHT22;32204;49.160;8.580;2022-08-19T04:18:47;21.50;99.90
46490;DHT22;32204;49.160;8.580;2022-08-19T04:21:21;21.50;99.90
46490;DHT22;32204;49.160;8.580;2022-08-19T04:23:48;21.50;99.90
46490;DHT22;32204;49.160;8.580;2022-08-19T04:26:15;21.50;99.90
46490;DHT22;32204;49.160;8.580;2022-08-19T04:28:42;21.50;99.90
46490;DHT22;32204;49.160;8.580;2022-08-19T04:31:13;21.50;99.90
46490;DHT22;32204;49.160;8.580;2022-08-19T04:33:39;21.50;99.90
46490;DHT22;32204;49.160;8.580;2022-08-19T04:36:05;21.60;99.90
46490;DHT22;32204;49.160;8.580;2022-08-19T04:38:31;21.50;99.90
46490;DHT22;32204;49.160;8.580;2022-08-19T04:40:56;21.50;99.90
46490;DHT22;32204;49.160;8.580;2022-08-19T04:43:41;21.60;99.90
46490;DHT22;32204;49.160;8.580;2022-08-19T04:46:07;21.60;99.90
46490;DHT22;32204;49.160;8.580;2022-08-19T04:48:34;21.80;99.90
46490;DHT22;32204;49.160;8.580;2022-08-19T04:51:00;21.90;99.90
46490;DHT22;32204;49.160;8.580;2022-08-19T04:53:29;21.90;99.90
46490;DHT22;32204;49.160;8.580;2022-08-19T04:55:57;22.00;99.90
46490;DHT22;32204;49.160;8.580;2022-08-19T04:58:24;22.00;99.90
46490;DHT22;32204;49.160;8.580;2022-08-19T05:00:50;22.00;99.90
46490;DHT22;32204;49.160;8.580;2022-08-19T05:03:16;22.00;99.90
46490;DHT22;32204;49.160;8.580;2022-08-19T05:05:43;22.00;99.90
46490;DHT22;32204;49.160;8.580;2022-08-19T05:08:10;22.00;99.90
46490;DHT22;32204;49.160;8.580;2022-08-19T05:10:37;21.90;99.90
46490;DHT22;32204;49.160;8.580;2022-08-19T05:13:04;21.80;99.90
46490;DHT22;32204;49.160;8.580;2022-08-19T05:15:30;21.80;99.90
46490;DHT22;32204;49.160;8.580;2022-08-19T05:17:55;21.80;99.90
46490;DHT22;32204;49.160;8.580;2022-08-19T05:20:40;21.80;99.90
46490;DHT22;32204;49.160;8.580;2022-08-19T05:23:24;21.70;99.90
46490;DHT22;32204;49.160;8.580;2022-08-19T05:25:51;21.90;99.90
46490;DHT22;32204;49.160;8.580;2022-08-19T05:28:18;21.80;99.90
46490;DHT22;32204;49.160;8.580;2022-08-19T05:30:44;21.90;99.90
46490;DHT22;32204;49.160;8.580;2022-08-19T05:33:10;21.90;99.90
46490;DHT22;32204;49.160;8.580;2022-08-19T05:35:40;21.80;99.90
46490;DHT22;32204;49.160;8.580;2022-08-19T05:38:07;21.90;99.90
46490;DHT22;32204;49.160;8.580;2022-08-19T05:40:38;21.90;99.90
46490;DHT22;32204;49.160;8.580;2022-08-19T05:43:07;21.90;99.90
46490;DHT22;32204;49.160;8.580;2022-08-19T05:45:38;21.90;99.90
46490;DHT22;32204;49.160;8.580;2022-08-19T05:48:04;21.90;99.90
46490;DHT22;32204;49.160;8.580;2022-08-19T05:50:30;21.90;99.90
46490;DHT22;32204;49.160;8.580;2022-08-19T05:52:56;21.90;99.90
46490;DHT22;32204;49.160;8.580;2022-08-19T05:55:21;22.00;99.90
46490;DHT22;32204;49.160;8.580;2022-08-19T05:57:49;22.00;99.90
46490;DHT22;32204;49.160;8.580;2022-08-19T06:00:15;22.00;99.90
46490;DHT22;32204;49.160;8.580;2022-08-19T06:02:41;22.10;99.90
46490;DHT22;32204;49.160;8.580;2022-08-19T06:05:07;22.00;99.90
46490;DHT22;32204;49.160;8.580;2022-08-19T06:07:38;22.00;99.90
46490;DHT22;32204;49.160;8.580;2022-08-19T06:10:07;22.10;99.90
46490;DHT22;32204;49.160;8.580;2022-08-19T06:12:33;22.00;99.90
46490;DHT22;32204;49.160;8.580;2022-08-19T06:15:03;22.10;99.90
46490;DHT22;32204;49.160;8.580;2022-08-19T06:17:30;22.00;99.90
46490;DHT22;32204;49.160;8.580;2022-08-19T06:19:56;22.00;99.90
46490;DHT22;32204;49.160;8.580;2022-08-19T06:22:22;22.00;99.90
46490;DHT22;32204;49.160;8.580;2022-08-19T06:24:48;22.10;99.90
46490;DHT22;32204;49.160;8.580;2022-08-19T06:27:18;22.10;99.90
46490;DHT22;32204;49.160;8.580;2022-08-19T06:29:44;22.30;99.90
46490;DHT22;32204;49.160;8.580;2022-08-19T06:32:13;22.30;99.90
46490;DHT22;32204;49.160;8.580;2022-08-19T06:34:40;22.50;99.90
46490;DHT22;32204;49.160;8.580;2022-08-19T06:37:07;22.40;99.90
46490;DHT22;32204;49.160;8.580;2022-08-19T06:39:36;22.50;99.90
46490;DHT22;32204;49.160;8.580;2022-08-19T06:42:04;22.60;99.90
46490;DHT22;32204;49.160;8.580;2022-08-19T06:44:34;22.50;99.90
46490;DHT22;32204;49.160;8.580;2022-08-19T06:47:04;22.70;99.90
46490;DHT22;32204;49.160;8.580;2022-08-19T06:49:29;22.80;99.90
46490;DHT22;32204;49.160;8.580;2022-08-19T06:51:57;23.10;99.90
46490;DHT22;32204;49.160;8.580;2022-08-19T06:54:24;23.30;99.90
46490;DHT22;32204;49.160;8.580;2022-08-19T06:56:49;23.30;99.90
46490;DHT22;32204;49.160;8.580;2022-08-19T06:59:18;23.40;99.90
46490;DHT22;32204;49.160;8.580;2022-08-19T07:01:49;24.20;99.90
46490;DHT22;32204;49.160;8.580;2022-08-19T07:04:18;24.30;99.90
46490;DHT22;32204;49.160;8.580;2022-08-19T07:06:45;24.00;26.10
46490;DHT22;32204;49.160;8.580;2022-08-19T07:09:13;23.70;75.00
46490;DHT22;32204;49.160;8.580;2022-08-19T07:11:47;23.70;61.90
46490;DHT22;32204;49.160;8.580;2022-08-19T07:14:14;23.80;46.60
46490;DHT22;32204;49.160;8.580;2022-08-19T07:16:41;23.70;93.50
46490;DHT22;32204;49.160;8.580;2022-08-19T07:19:07;23.80;10.90
46490;DHT22;32204;49.160;8.580;2022-08-19T07:21:32;24.00;99.90
46490;DHT22;32204;49.160;8.580;2022-08-19T07:23:59;24.00;59.50
46490;DHT22;32204;49.160;8.580;2022-08-19T07:26:31;24.00;65.40
46490;DHT22;32204;49.160;8.580;2022-08-19T07:28:58;23.90;93.30
46490;DHT22;32204;49.160;8.580;2022-08-19T07:31:27;23.80;72.10
46490;DHT22;32204;49.160;8.580;2022-08-19T07:33:54;23.80;90.90
46490;DHT22;32204;49.160;8.580;2022-08-19T07:36:24;24.00;99.90
46490;DHT22;32204;49.160;8.580;2022-08-19T07:38:51;24.10;99.90
46490;DHT22;32204;49.160;8.580;2022-08-19T07:41:21;24.30;99.90
46490;DHT22;32204;49.160;8.580;2022-08-19T07:43:48;24.20;76.60
46490;DHT22;32204;49.160;8.580;2022-08-19T07:46:14;24.20;38.10
46490;DHT22;32204;49.160;8.580;2022-08-19T07:48:42;24.00;99.90
46490;DHT22;32204;49.160;8.580;2022-08-19T07:51:10;24.00;99.90
46490;DHT22;32204;49.160;8.580;2022-08-19T07:53:37;24.10;99.90
46490;DHT22;32204;49.160;8.580;2022-08-19T07:56:03;24.00;97.60
46490;DHT22;32204;49.160;8.580;2022-08-19T07:58:36;24.00;99.90
46490;DHT22;32204;49.160;8.580;2022-08-19T08:01:05;24.00;99.90
46490;DHT22;32204;49.160;8.580;2022-08-19T08:03:32;23.80;99.90
46490;DHT22;32204;49.160;8.580;2022-08-19T08:06:17;23.70;99.90
46490;DHT22;32204;49.160;8.580;2022-08-19T08:09:03;23.70;99.90
46490;DHT22;32204;49.160;8.580;2022-08-19T08:11:44;23.70;99.90
46490;DHT22;32204;49.160;8.580;2022-08-19T08:14:16;23.70;99.90
46490;DHT22;32204;49.160;8.580;2022-08-19T08:16:42;23.90;99.90
46490;DHT22;32204;49.160;8.580;2022-08-19T08:19:09;24.20;99.90
46490;DHT22;32204;49.160;8.580;2022-08-19T08:21:35;24.20;94.20
46490;DHT22;32204;49.160;8.580;2022-08-19T08:24:00;24.40;99.90
46490;DHT22;32204;49.160;8.580;2022-08-19T08:26:26;24.50;61.90
46490;DHT22;32204;49.160;8.580;2022-08-19T08:28:52;24.70;81.20
46490;DHT22;32204;49.160;8.580;2022-08-19T08:31:18;24.60;25.20
46490;DHT22;32204;49.160;8.580;2022-08-19T08:33:45;24.60;34.40
46490;DHT22;32204;49.160;8.580;2022-08-19T08:36:12;24.70;49.30
46490;DHT22;32204;49.160;8.580;2022-08-19T08:38:42;24.80;56.70
46490;DHT22;32204;49.160;8.580;2022-08-19T08:41:35;24.80;1.00
46490;DHT22;32204;49.160;8.580;2022-08-19T08:44:03;24.90;20.10
46490;DHT22;32204;49.160;8.580;2022-08-19T08:46:41;25.10;1.00
46490;DHT22;32204;49.160;8.580;2022-08-19T08:51:59;25.30;1.00
46490;DHT22;32204;49.160;8.580;2022-08-19T08:54:41;25.20;1.00
46490;DHT22;32204;49.160;8.580;2022-08-19T08:57:35;25.30;1.00
46490;DHT22;32204;49.160;8.580;2022-08-19T09:00:00;25.40;1.00
46490;DHT22;32204;49.160;8.580;2022-08-19T09:02:29;25.70;1.00
46490;DHT22;32204;49.160;8.580;2022-08-19T09:04:54;25.70;1.00
46490;DHT22;32204;49.160;8.580;2022-08-19T09:16:07;25.80;99.90
46490;DHT22;32204;49.160;8.580;2022-08-19T09:18:56;25.80;99.90
46490;DHT22;32204;49.160;8.580;2022-08-19T09:21:24;26.40;99.90
46490;DHT22;32204;49.160;8.580;2022-08-19T09:23:51;26.60;17.30
46490;DHT22;32204;49.160;8.580;2022-08-19T09:26:21;26.50;1.00
46490;DHT22;32204;49.160;8.580;2022-08-19T09:28:49;26.90;99.90
46490;DHT22;32204;49.160;8.580;2022-08-19T09:31:22;27.10;1.00
46490;DHT22;32204;49.160;8.580;2022-08-19T09:33:48;27.00;1.00
46490;DHT22;32204;49.160;8.580;2022-08-19T09:36:16;27.10;99.90
46490;DHT22;32204;49.160;8.580;2022-08-19T09:38:42;27.00;1.00
46490;DHT22;32204;49.160;8.580;2022-08-19T09:41:17;26.90;99.90
46490;DHT22;32204;49.160;8.580;2022-08-19T09:43:45;26.90;99.90
46490;DHT22;32204;49.160;8.580;2022-08-19T09:46:10;26.90;99.90
46490;DHT22;32204;49.160;8.580;2022-08-19T09:48:37;27.10;99.90
46490;DHT22;32204;49.160;8.580;2022-08-19T09:51:09;26.90;1.00
46490;DHT22;32204;49.160;8.580;2022-08-19T09:53:37;26.80;1.00
46490;DHT22;32204;49.160;8.580;2022-08-19T09:56:05;27.10;1.00
46490;DHT22;32204;49.160;8.580;2022-08-19T09:58:31;27.00;99.90
46490;DHT22;32204;49.160;8.580;2022-08-19T10:00:58;27.00;99.90
46490;DHT22;32204;49.160;8.580;2022-08-19T10:03:26;27.30;99.90
46490;DHT22;32204;49.160;8.580;2022-08-19T10:05:53;27.40;99.90
46490;DHT22;32204;49.160;8.580;2022-08-19T10:08:22;27.40;99.90
46490;DHT22;32204;49.160;8.580;2022-08-19T10:10:48;27.40;99.90
46490;DHT22;32204;49.160;8.580;2022-08-19T10:13:18;27.50;54.10
46490;DHT22;32204;49.160;8.580;2022-08-19T10:15:48;27.30;1.00
46490;DHT22;32204;49.160;8.580;2022-08-19T10:18:16;27.30;99.90
46490;DHT22;32204;49.160;8.580;2022-08-19T10:20:46;27.70;1.00
46490;DHT22;32204;49.160;8.580;2022-08-19T10:23:12;27.70;1.00
46490;DHT22;32204;49.160;8.580;2022-08-19T10:25:38;27.80;99.90
46490;DHT22;32204;49.160;8.580;2022-08-19T10:28:04;27.80;99.90
46490;DHT22;32204;49.160;8.580;2022-08-19T10:30:31;27.80;99.90
46490;DHT22;32204;49.160;8.580;2022-08-19T10:32:57;27.50;91.60
46490;DHT22;32204;49.160;8.580;2022-08-19T10:35:23;27.70;70.70
46490;DHT22;32204;49.160;8.580;2022-08-19T10:37:55;27.70;1.00
46490;DHT22;32204;49.160;8.580;2022-08-19T10:40:25;27.80;1.00
46490;DHT22;32204;49.160;8.580;2022-08-19T10:42:52;27.90;1.00
46490;DHT22;32204;49.160;8.580;2022-08-19T10:45:18;27.80;99.90
46490;DHT22;32204;49.160;8.580;2022-08-19T10:47:44;27.90;99.90
46490;DHT22;32204;49.160;8.580;2022-08-19T10:50:10;27.80;99.90
46490;DHT22;32204;49.160;8.580;2022-08-19T10:52:54;28.20;1.00
46490;DHT22;32204;49.160;8.580;2022-08-19T10:55:22;28.30;99.90
46490;DHT22;32204;49.160;8.580;2022-08-19T10:58:13;28.40;99.90
46490;DHT22;32204;49.160;8.580;2022-08-19T11:00:39;28.50;99.90
46490;DHT22;32204;49.160;8.580;2022-08-19T11:03:08;28.40;99.90
46490;DHT22;32204;49.160;8.580;2022-08-19T11:05:33;28.10;99.90
46490;DHT22;32204;49.160;8.580;2022-08-19T11:07:59;27.90;99.90
46490;DHT22;32204;49.160;8.580;2022-08-19T11:10:25;28.20;99.90
46490;DHT22;32204;49.160;8.580;2022-08-19T11:12:50;28.30;99.90
46490;DHT22;32204;49.160;8.580;2022-08-19T11:15:22;28.30;99.90
46490;DHT22;32204;49.160;8.580;2022-08-19T11:17:48;28.20;99.90
46490;DHT22;32204;49.160;8.580;2022-08-19T11:20:14;28.50;99.90
46490;DHT22;32204;49.160;8.580;2022-08-19T11:22:40;28.80;99.90
46490;DHT22;32204;49.160;8.580;2022-08-19T11:25:08;28.90;99.90
46490;DHT22;32204;49.160;8.580;2022-08-19T11:27:40;28.80;72.70
46490;DHT22;32204;49.160;8.580;2022-08-19T11:30:12;28.40;93.10
46490;DHT22;32204;49.160;8.580;2022-08-19T11:32:37;28.00;99.90
46490;DHT22;32204;49.160;8.580;2022-08-19T11:35:03;27.90;91.70
46490;DHT22;32204;49.160;8.580;2022-08-19T11:37:29;28.30;99.90
46490;DHT22;32204;49.160;8.580;2022-08-19T11:39:54;28.00;48.50
46490;DHT22;32204;49.160;8.580;2022-08-19T11:42:20;28.20;5.60
46490;DHT22;32204;49.160;8.580;2022-08-19T11:45:04;28.10;1.00
46490;DHT22;32204;49.160;8.580;2022-08-19T11:47:30;28.20;1.00
46490;DHT22;32204;49.160;8.580;2022-08-19T11:49:56;28.10;99.90
46490;DHT22;32204;49.160;8.580;2022-08-19T11:52:22;27.90;99.90
46490;DHT22;32204;49.160;8.580;2022-08-19T11:54:51;27.90;99.90
46490;DHT22;32204;49.160;8.580;2022-08-19T11:57:17;28.20;99.90
46490;DHT22;32204;49.160;8.580;2022-08-19T11:59:48;28.80;99.90
46490;DHT22;32204;49.160;8.580;2022-08-19T12:02:14;29.10;99.90
46490;DHT22;32204;49.160;8.580;2022-08-19T12:04:40;28.90;99.90
46490;DHT22;32204;49.160;8.580;2022-08-19T12:07:06;28.80;99.90
46490;DHT22;32204;49.160;8.580;2022-08-19T12:09:32;28.80;20.50
46490;DHT22;32204;49.160;8.580;2022-08-19T12:12:00;28.70;99.90
46490;DHT22;32204;49.160;8.580;2022-08-19T12:14:27;29.20;99.90
46490;DHT22;32204;49.160;8.580;2022-08-19T12:16:55;28.90;99.90
46490;DHT22;32204;49.160;8.580;2022-08-19T12:19:22;28.70;99.90
46490;DHT22;32204;49.160;8.580;2022-08-19T12:21:50;28.70;99.90
46490;DHT22;32204;49.160;8.580;2022-08-19T12:24:16;28.80;99.90
46490;DHT22;32204;49.160;8.580;2022-08-19T12:26:48;29.00;99.90
46490;DHT22;32204;49.160;8.580;2022-08-19T12:29:14;28.90;99.90
46490;DHT22;32204;49.160;8.580;2022-08-19T12:31:40;28.70;99.90
46490;DHT22;32204;49.160;8.580;2022-08-19T12:34:06;28.60;99.90
46490;DHT22;32204;49.160;8.580;2022-08-19T12:36:32;28.80;99.90
46490;DHT22;32204;49.160;8.580;2022-08-19T12:38:58;28.80;99.90
46490;DHT22;32204;49.160;8.580;2022-08-19T12:41:27;28.80;1.00
46490;DHT22;32204;49.160;8.580;2022-08-19T12:43:53;28.90;37.00
46490;DHT22;32204;49.160;8.580;2022-08-19T12:46:19;28.60;55.90
46490;DHT22;32204;49.160;8.580;2022-08-19T12:48:45;28.70;1.00
46490;DHT22;32204;49.160;8.580;2022-08-19T12:51:16;28.80;61.20
46490;DHT22;32204;49.160;8.580;2022-08-19T12:53:43;29.10;91.00
46490;DHT22;32204;49.160;8.580;2022-08-19T12:56:10;29.30;9.50
46490;DHT22;32204;49.160;8.580;2022-08-19T12:58:36;29.30;1.00
46490;DHT22;32204;49.160;8.580;2022-08-19T13:01:14;29.30;93.30
46490;DHT22;32204;49.160;8.580;2022-08-19T13:03:40;29.20;79.60
46490;DHT22;32204;49.160;8.580;2022-08-19T13:06:06;28.90;1.00
46490;DHT22;32204;49.160;8.580;2022-08-19T13:08:32;29.00;54.50
46490;DHT22;32204;49.160;8.580;2022-08-19T13:11:01;29.00;47.30
46490;DHT22;32204;49.160;8.580;2022-08-19T13:13:31;29.00;14.00
46490;DHT22;32204;49.160;8.580;2022-08-19T13:16:00;29.10;91.90
46490;DHT22;32204;49.160;8.580;2022-08-19T13:18:27;29.30;99.90
46490;DHT22;32204;49.160;8.580;2022-08-19T13:20:53;29.40;99.90
46490;DHT22;32204;49.160;8.580;2022-08-19T13:23:18;29.20;99.90
46490;DHT22;32204;49.160;8.580;2022-08-19T13:26:19;29.10;99.90
46490;DHT22;32204;49.160;8.580;2022-08-19T13:28:51;28.80;99.90
46490;DHT22;32204;49.160;8.580;2022-08-19T13:31:41;28.80;99.90
46490;DHT22;32204;49.160;8.580;2022-08-19T13:34:30;28.90;99.90
46490;DHT22;32204;49.160;8.580;2022-08-19T13:36:56;29.00;99.90
46490;DHT22;32204;49.160;8.580;2022-08-19T13:39:22;29.30;99.90
46490;DHT22;32204;49.160;8.580;2022-08-19T13:41:48;29.50;23.50
46490;DHT22;32204;49.160;8.580;2022-08-19T13:44:16;29.60;99.90
46490;DHT22;32204;49.160;8.580;2022-08-19T13:46:49;29.50;99.90
46490;DHT22;32204;49.160;8.580;2022-08-19T13:49:18;29.40;99.90
46490;DHT22;32204;49.160;8.580;2022-08-19T13:51:44;29.50;99.90
46490;DHT22;32204;49.160;8.580;2022-08-19T13:54:11;29.70;99.90
46490;DHT22;32204;49.160;8.580;2022-08-19T13:56:41;29.80;99.90
46490;DHT22;32204;49.160;8.580;2022-08-19T13:59:08;29.90;99.90
46490;DHT22;32204;49.160;8.580;2022-08-19T14:01:33;29.90;99.90
46490;DHT22;32204;49.160;8.580;2022-08-19T14:04:00;29.70;99.90
46490;DHT22;32204;49.160;8.580;2022-08-19T14:06:26;29.90;99.90
46490;DHT22;32204;49.160;8.580;2022-08-19T14:08:52;30.10;99.90
46490;DHT22;32204;49.160;8.580;2022-08-19T14:11:18;30.10;1.00
46490;DHT22;32204;49.160;8.580;2022-08-19T14:13:43;30.00;99.90
46490;DHT22;32204;49.160;8.580;2022-08-19T14:16:11;30.20;99.90
46490;DHT22;32204;49.160;8.580;2022-08-19T14:18:37;30.40;99.90
46490;DHT22;32204;49.160;8.580;2022-08-19T14:21:04;30.20;1.00
46490;DHT22;32204;49.160;8.580;2022-08-19T14:23:30;30.10;99.90
46490;DHT22;32204;49.160;8.580;2022-08-19T14:26:08;30.00;1.00
46490;DHT22;32204;49.160;8.580;2022-08-19T14:28:35;30.10;1.00
46490;DHT22;32204;49.160;8.580;2022-08-19T14:31:00;30.10;99.90
46490;DHT22;32204;49.160;8.580;2022-08-19T14:33:26;30.30;99.90
46490;DHT22;32204;49.160;8.580;2022-08-19T14:35:52;30.20;99.90
46490;DHT22;32204;49.160;8.580;2022-08-19T14:38:18;30.40;99.90
46490;DHT22;32204;49.160;8.580;2022-08-19T14:40:44;30.40;99.90
46490;DHT22;32204;49.160;8.580;2022-08-19T14:43:10;30.60;1.00
46490;DHT22;32204;49.160;8.580;2022-08-19T14:45:38;30.70;99.90
46490;DHT22;32204;49.160;8.580;2022-08-19T14:48:05;30.60;1.00
46490;DHT22;32204;49.160;8.580;2022-08-19T14:50:33;30.50;1.00
46490;DHT22;32204;49.160;8.580;2022-08-19T14:53:08;30.40;99.90
46490;DHT22;32204;49.160;8.580;2022-08-19T14:55:34;30.30;99.90
46490;DHT22;32204;49.160;8.580;2022-08-19T14:58:00;30.20;99.90
46490;DHT22;32204;49.160;8.580;2022-08-19T15:00:29;30.10;99.90
46490;DHT22;32204;49.160;8.580;2022-08-19T15:02:55;30.00;99.90
46490;DHT22;32204;49.160;8.580;2022-08-19T15:05:21;30.10;99.90
46490;DHT22;32204;49.160;8.580;2022-08-19T15:07:47;30.10;99.90
46490;DHT22;32204;49.160;8.580;2022-08-19T15:10:14;30.00;1.00
46490;DHT22;32204;49.160;8.580;2022-08-19T15:12:41;30.00;99.90
46490;DHT22;32204;49.160;8.580;2022-08-19T15:15:10;29.90;99.90
46490;DHT22;32204;49.160;8.580;2022-08-19T15:17:41;29.70;99.90
46490;DHT22;32204;49.160;8.580;2022-08-19T15:20:08;29.60;99.90
46490;DHT22;32204;49.160;8.580;2022-08-19T15:22:34;29.60;99.90
46490;DHT22;32204;49.160;8.580;2022-08-19T15:25:01;29.70;99.90
46490;DHT22;32204;49.160;8.580;2022-08-19T15:27:27;29.60;99.90
46490;DHT22;32204;49.160;8.580;2022-08-19T15:29:52;29.60;99.90
46490;DHT22;32204;49.160;8.580;2022-08-19T15:32:18;29.50;99.90
46490;DHT22;32204;49.160;8.580;2022-08-19T15:34:44;29.30;99.90
46490;DHT22;32204;49.160;8.580;2022-08-19T15:37:11;29.40;99.90
46490;DHT22;32204;49.160;8.580;2022-08-19T15:39:36;29.50;99.90
46490;DHT22;32204;49.160;8.580;2022-08-19T15:42:02;29.50;99.90
46490;DHT22;32204;49.160;8.580;2022-08-19T15:44:28;29.40;99.90
46490;DHT22;32204;49.160;8.580;2022-08-19T15:46:54;29.40;35.90
46490;DHT22;32204;49.160;8.580;2022-08-19T15:49:20;29.30;99.90